createdAt,value
2022-11-29T00:03:38.255Z,100479.16
2022-11-29T00:07:41.332Z,100467.41
2022-11-29T00:12:01.866Z,100481.47
2022-11-29T00:16:06.516Z,100485.66
2022-11-29T00:20:12.183Z,100476.00
2022-11-29T00:24:15.529Z,100475.50
2022-11-29T00:28:18.573Z,100484.56
2022-11-29T00:32:21.622Z,100485.22
2022-11-29T00:36:27.012Z,100492.78
2022-11-29T00:40:30.053Z,100491.69
2022-11-29T00:44:33.109Z,100490.50
2022-11-29T00:48:36.658Z,100487.22
2022-11-29T00:52:41.121Z,100492.84
2022-11-29T00:56:44.445Z,100488.50
2022-11-29T01:00:47.682Z,100487.59
2022-11-29T01:04:50.755Z,100499.66
2022-11-29T01:08:55.231Z,100501.41
2022-11-29T01:12:58.312Z,100488.81
2022-11-29T01:17:01.694Z,100491.50
2022-11-29T01:21:07.382Z,100497.72
2022-11-29T01:25:13.911Z,100501.69
2022-11-29T01:29:16.942Z,100508.16
2022-11-29T01:33:20.157Z,100499.63
2022-11-29T01:37:23.235Z,100508.75
2022-11-29T01:41:29.301Z,100510.00
2022-11-29T01:45:39.314Z,100504.16
2022-11-29T01:49:45.258Z,100515.97
2022-11-29T01:53:48.430Z,100509.47
2022-11-29T01:57:53.251Z,100523.53
2022-11-29T02:02:01.655Z,100522.69
2022-11-29T02:06:07.318Z,100526.47
2022-11-29T02:10:11.249Z,100531.44
2022-11-29T02:14:34.605Z,100531.91
2022-11-29T02:18:51.921Z,100535.94
2022-11-29T02:23:00.418Z,100532.78
2022-11-29T02:27:25.831Z,100540.56
2022-11-29T02:32:01.649Z,100544.16
2022-11-29T02:36:35.664Z,100546.19
2022-11-29T02:40:58.948Z,100540.56
2022-11-29T02:45:11.689Z,100540.84
2022-11-29T02:49:21.188Z,100544.41
2022-11-29T02:53:31.347Z,100552.38
2022-11-29T02:57:41.321Z,100551.34
2022-11-29T03:01:53.288Z,100556.53
2022-11-29T03:06:06.931Z,100554.19
2022-11-29T03:10:23.123Z,100558.38
2022-11-29T03:14:28.385Z,100558.84
2022-11-29T03:18:44.045Z,100568.47
2022-11-29T03:22:56.509Z,100569.31
2022-11-29T03:27:07.302Z,100576.50
2022-11-29T03:31:15.605Z,100582.22
2022-11-29T03:35:25.895Z,100581.81
2022-11-29T03:39:34.420Z,100574.31
2022-11-29T03:43:44.307Z,100583.63
2022-11-29T03:47:55.725Z,100581.19
2022-11-29T03:52:08.458Z,100593.63
2022-11-29T03:56:29.505Z,100595.59
2022-11-29T04:00:46.141Z,100603.59
2022-11-29T04:05:20.748Z,100597.53
2022-11-29T04:09:49.367Z,100608.03
2022-11-29T04:14:15.345Z,100607.66
2022-11-29T04:18:59.995Z,100612.06
2022-11-29T04:23:28.835Z,100627.38
2022-11-29T04:27:41.964Z,100633.88
2022-11-29T04:32:04.393Z,100629.84
2022-11-29T04:36:39.574Z,100633.09
2022-11-29T04:40:57.311Z,100642.94
2022-11-29T04:45:25.918Z,100648.13
2022-11-29T04:49:47.035Z,100650.09
2022-11-29T04:53:57.678Z,100659.38
2022-11-29T04:58:07.647Z,100670.75
2022-11-29T05:02:21.176Z,100673.47
2022-11-29T05:06:31.861Z,100675.75
2022-11-29T05:10:47.113Z,100672.38
2022-11-29T05:15:12.279Z,100667.31
2022-11-29T05:19:43.084Z,100677.59
2022-11-29T05:24:01.085Z,100680.34
2022-11-29T05:28:13.904Z,100690.31
2022-11-29T05:32:33.389Z,100693.53
2022-11-29T05:36:44.700Z,100687.41
2022-11-29T05:40:59.427Z,100693.16
2022-11-29T05:45:09.951Z,100705.63
2022-11-29T05:49:23.911Z,100704.59
2022-11-29T05:53:33.578Z,100707.97
2022-11-29T05:57:44.634Z,100714.09
2022-11-29T06:01:56.238Z,100719.91
2022-11-29T06:06:06.056Z,100727.66
2022-11-29T06:10:13.714Z,100728.59
2022-11-29T06:14:31.854Z,100745.41
2022-11-29T06:19:13.956Z,100744.16
2022-11-29T06:23:49.927Z,100744.44
2022-11-29T06:28:28.519Z,100751.13
2022-11-29T06:32:40.285Z,100740.41
2022-11-29T06:36:50.543Z,100756.09
2022-11-29T06:41:01.351Z,100755.06
2022-11-29T06:45:06.289Z,100754.25
2022-11-29T06:49:14.145Z,100754.53
2022-11-29T06:53:30.933Z,100756.50
2022-11-29T06:57:47.450Z,100766.09
2022-11-29T07:01:57.327Z,100771.09
2022-11-29T07:06:14.293Z,100776.72
2022-11-29T07:10:23.183Z,100774.75
2022-11-29T07:14:26.925Z,100778.59
2022-11-29T07:18:35.327Z,100779.44
2022-11-29T07:22:56.442Z,100787.22
2022-11-29T07:27:08.346Z,100795.78
2022-11-29T07:31:18.383Z,100814.75
2022-11-29T07:35:29.468Z,100814.75
2022-11-29T07:39:44.930Z,100819.47
2022-11-29T07:43:57.413Z,100828.59
2022-11-29T07:48:00.966Z,100829.03
2022-11-29T07:52:04.127Z,100839.56
2022-11-29T07:56:07.550Z,100828.00
2022-11-29T08:00:14.063Z,100842.00
2022-11-29T08:04:17.166Z,100839.94
2022-11-29T08:08:20.256Z,100839.59
2022-11-29T08:12:23.575Z,100849.16
2022-11-29T08:16:28.202Z,100845.19
2022-11-29T08:20:31.384Z,100850.28
2022-11-29T08:24:34.580Z,100858.66
2022-11-29T08:28:37.634Z,100871.31
2022-11-29T08:32:44.806Z,100863.06
2022-11-29T08:36:50.743Z,100875.84
2022-11-29T08:40:53.825Z,100866.25
2022-11-29T08:44:56.854Z,100870.38
2022-11-29T08:49:01.405Z,100876.78
2022-11-29T08:53:22.126Z,100878.28
2022-11-29T08:57:39.660Z,100881.09
2022-11-29T09:01:43.718Z,100879.22
2022-11-29T09:05:48.423Z,100883.09
2022-11-29T09:09:51.491Z,100895.56
2022-11-29T09:13:56.946Z,100893.69
2022-11-29T09:18:00.084Z,100889.03
2022-11-29T09:22:04.699Z,100895.31
2022-11-29T09:26:08.853Z,100899.78
2022-11-29T09:30:12.970Z,100901.41
2022-11-29T09:34:16.736Z,100911.06
2022-11-29T09:38:24.133Z,100912.97
2022-11-29T09:42:38.234Z,100918.63
2022-11-29T09:46:55.736Z,100921.72
2022-11-29T09:51:15.427Z,100922.38
2022-11-29T09:55:37.485Z,100923.63
2022-11-29T09:59:44.604Z,100928.00
2022-11-29T10:03:52.908Z,100931.75
2022-11-29T10:07:59.789Z,100924.03
2022-11-29T10:12:14.040Z,100927.03
2022-11-29T10:16:23.510Z,100921.84
2022-11-29T10:20:30.514Z,100926.38
2022-11-29T10:24:34.557Z,100926.09
2022-11-29T10:28:44.812Z,100925.22
2022-11-29T10:32:51.861Z,100925.22
2022-11-29T10:36:59.500Z,100936.63
2022-11-29T10:41:08.521Z,100923.06
2022-11-29T10:45:18.071Z,100917.72
2022-11-29T10:49:26.105Z,100922.50
2022-11-29T10:53:35.790Z,100928.00
2022-11-29T10:58:36.821Z,100928.88
2022-11-29T11:02:46.210Z,100927.44
2022-11-29T11:07:02.691Z,100927.94
2022-11-29T11:11:15.022Z,100929.53
2022-11-29T11:15:29.716Z,100929.25
2022-11-29T11:19:35.694Z,100923.66
2022-11-29T11:23:46.682Z,100929.94
2022-11-29T11:27:50.164Z,100934.84
2022-11-29T11:31:56.728Z,100939.50
2022-11-29T11:36:11.285Z,100941.09
2022-11-29T11:40:27.347Z,100942.50
2022-11-29T11:44:53.699Z,100942.19
2022-11-29T11:48:57.151Z,100949.50
2022-11-29T11:53:05.693Z,100945.75
2022-11-29T11:57:18.494Z,100952.31
2022-11-29T12:01:28.335Z,100957.28
2022-11-29T12:05:32.198Z,100954.00
2022-11-29T12:09:43.264Z,100953.44
2022-11-29T12:14:14.660Z,100959.78
2022-11-29T12:18:31.371Z,100961.16
2022-11-29T12:22:45.252Z,100959.94
2022-11-29T12:26:58.275Z,100969.94
2022-11-29T12:31:15.598Z,100977.41
2022-11-29T12:35:37.140Z,100977.69
2022-11-29T12:39:58.209Z,100971.91
2022-11-29T12:44:15.935Z,100973.16
2022-11-29T12:48:30.124Z,100985.91
2022-11-29T12:52:42.928Z,100990.63
2022-11-29T12:56:54.558Z,100998.00
2022-11-29T13:01:10.236Z,100991.00
2022-11-29T13:05:21.914Z,100993.53
2022-11-29T13:09:48.240Z,101001.25
2022-11-29T13:14:50.060Z,101000.59
2022-11-29T13:19:00.463Z,101004.53
2022-11-29T13:23:13.898Z,101006.72
2022-11-29T13:27:22.850Z,101016.59
2022-11-29T13:31:27.522Z,101006.81
2022-11-29T13:35:57.144Z,101011.88
2022-11-29T13:40:12.853Z,101005.78
2022-11-29T13:44:22.949Z,101015.94
2022-11-29T13:48:37.143Z,101013.88
2022-11-29T13:52:44.594Z,101021.41
2022-11-29T13:56:48.197Z,101019.50
2022-11-29T14:00:53.207Z,101020.44
2022-11-29T14:04:57.038Z,101023.75
2022-11-29T14:09:25.289Z,101031.75
2022-11-29T14:13:34.323Z,101026.41
2022-11-29T14:17:49.654Z,101030.63
2022-11-29T14:22:19.240Z,101034.69
2022-11-29T14:26:29.213Z,101042.13
2022-11-29T14:30:51.691Z,101048.31
2022-11-29T14:34:59.368Z,101044.06
2022-11-29T14:39:23.763Z,101050.38
2022-11-29T14:43:33.579Z,101044.72
2022-11-29T14:47:39.088Z,101053.00
2022-11-29T14:52:10.022Z,101059.47
2022-11-29T14:56:43.597Z,101058.28
2022-11-29T15:01:11.045Z,101058.44
2022-11-29T15:05:19.777Z,101063.22
2022-11-29T15:09:25.300Z,101065.34
2022-11-29T15:13:31.896Z,101065.44
2022-11-29T15:17:48.500Z,101072.47
2022-11-29T15:22:00.805Z,101080.47
2022-11-29T15:26:04.463Z,101080.00
2022-11-29T15:30:20.453Z,101087.16
2022-11-29T15:34:32.332Z,101087.03
2022-11-29T15:38:45.096Z,101089.56
2022-11-29T15:42:52.874Z,101088.38
2022-11-29T15:46:56.477Z,101094.56
2022-11-29T15:51:10.204Z,101103.63
2022-11-29T15:55:15.049Z,101099.81
2022-11-29T15:59:33.758Z,101098.66
2022-11-29T16:03:41.738Z,101104.34
2022-11-29T16:07:49.243Z,101110.38
2022-11-29T16:11:52.916Z,101107.50
2022-11-29T16:16:07.283Z,101096.50
2022-11-29T16:20:24.815Z,101103.63
2022-11-29T16:24:29.988Z,101111.13
2022-11-29T16:28:35.953Z,101107.38
2022-11-29T16:32:44.465Z,101114.22
2022-11-29T16:36:47.989Z,101108.09
2022-11-29T16:41:09.013Z,101112.50
2022-11-29T16:45:35.769Z,101117.56
2022-11-29T16:49:39.444Z,101130.88
2022-11-29T16:53:47.673Z,101127.41
2022-11-29T16:57:53.360Z,101123.72
2022-11-29T17:01:57.408Z,101132.59
2022-11-29T17:06:01.668Z,101132.91
2022-11-29T17:10:07.368Z,101133.28
2022-11-29T17:14:12.291Z,101128.13
2022-11-29T17:18:15.896Z,101129.53
2022-11-29T17:22:19.372Z,101126.47
2022-11-29T17:26:23.685Z,101130.41
2022-11-29T17:30:30.148Z,101140.13
2022-11-29T17:34:33.816Z,101145.22
2022-11-29T17:38:37.776Z,101136.09
2022-11-29T17:42:41.400Z,101136.81
2022-11-29T17:46:46.357Z,101133.78
2022-11-29T17:50:49.963Z,101141.59
2022-11-29T17:54:53.376Z,101143.34
2022-11-29T17:58:58.333Z,101147.97
2022-11-29T18:03:03.995Z,101148.81
2022-11-29T18:07:07.526Z,101159.84
2022-11-29T18:11:13.930Z,101159.00
2022-11-29T18:15:17.580Z,101155.94
2022-11-29T18:19:23.910Z,101151.16
2022-11-29T18:23:29.367Z,101151.69
2022-11-29T18:27:32.827Z,101142.66
2022-11-29T18:31:38.421Z,101146.97
2022-11-29T18:35:43.400Z,101143.09
2022-11-29T18:39:47.126Z,101143.78
2022-11-29T18:43:56.791Z,101140.22
2022-11-29T18:48:02.174Z,101143.47
2022-11-29T18:52:07.300Z,101147.22
2022-11-29T18:56:15.410Z,101147.91
2022-11-29T19:00:19.264Z,101152.66
2022-11-29T19:04:31.796Z,101153.69
2022-11-29T19:08:37.436Z,101151.97
2022-11-29T19:12:41.024Z,101162.84
2022-11-29T19:16:47.438Z,101165.22
2022-11-29T19:20:53.306Z,101169.16
2022-11-29T19:24:58.279Z,101167.59
2022-11-29T19:29:02.512Z,101160.13
2022-11-29T19:33:05.954Z,101162.19
2022-11-29T19:37:09.657Z,101163.69
2022-11-29T19:41:16.360Z,101163.00
2022-11-29T19:45:19.939Z,101163.88
2022-11-29T19:49:24.455Z,101159.63
2022-11-29T19:53:28.278Z,101163.00
2022-11-29T19:57:33.241Z,101173.72
2022-11-29T20:01:41.482Z,101169.97
2022-11-29T20:05:55.308Z,101175.16
2022-11-29T20:09:58.975Z,101191.63
2022-11-29T20:14:06.264Z,101198.88
2022-11-29T20:18:09.828Z,101192.28
2022-11-29T20:22:13.446Z,101195.69
2022-11-29T20:26:19.523Z,101198.06
2022-11-29T20:30:25.937Z,101203.16
2022-11-29T20:34:29.785Z,101205.72
2022-11-29T20:38:42.736Z,101213.38
2022-11-29T20:43:04.514Z,101218.88
2022-11-29T20:47:19.505Z,101218.88
2022-11-29T20:51:28.328Z,101216.19
2022-11-29T20:55:31.944Z,101227.56
2022-11-29T20:59:35.619Z,101220.13
2022-11-29T21:03:40.582Z,101231.81
2022-11-29T21:07:45.855Z,101228.06
2022-11-29T21:11:49.927Z,101228.28
2022-11-29T21:15:53.840Z,101226.22
2022-11-29T21:19:59.983Z,101228.41
2022-11-29T21:24:09.971Z,101229.97
2022-11-29T21:28:16.321Z,101232.16
2022-11-29T21:32:23.395Z,101231.50
2022-11-29T21:36:28.443Z,101225.03
2022-11-29T21:40:31.840Z,101235.06
2022-11-29T21:44:35.292Z,101227.09
2022-11-29T21:48:39.014Z,101228.09
2022-11-29T21:52:44.342Z,101231.84
2022-11-29T21:56:47.792Z,101233.19
2022-11-29T22:00:51.135Z,101231.69
2022-11-29T22:04:54.598Z,101241.69
2022-11-29T22:09:00.086Z,101245.94
2022-11-29T22:13:03.599Z,101238.63
2022-11-29T22:17:07.108Z,101249.34
2022-11-29T22:21:10.455Z,101251.19
2022-11-29T22:25:15.756Z,101251.38
2022-11-29T22:29:19.211Z,101237.25
2022-11-29T22:33:22.845Z,101249.00
2022-11-29T22:37:26.191Z,101237.94
2022-11-29T22:41:31.942Z,101242.03
2022-11-29T22:45:35.325Z,101233.72
2022-11-29T22:49:38.754Z,101230.31
2022-11-29T22:53:44.152Z,101237.28
2022-11-29T22:57:49.165Z,101237.94
2022-11-29T23:01:52.596Z,101240.69
2022-11-29T23:05:55.988Z,101250.88
2022-11-29T23:09:59.309Z,101240.69
2022-11-29T23:14:04.150Z,101253.75
2022-11-29T23:18:07.561Z,101252.38
2022-11-29T23:22:10.917Z,101250.53
2022-11-29T23:26:20.912Z,101254.63
2022-11-29T23:30:25.670Z,101265.16
2022-11-29T23:34:29.110Z,101264.47
2022-11-29T23:38:32.808Z,101262.44
2022-11-29T23:42:36.175Z,101257.50
2022-11-29T23:46:40.937Z,101254.63
2022-11-29T23:50:44.795Z,101243.75
2022-11-29T23:54:48.328Z,101243.56
2022-11-29T23:58:51.899Z,101237.28
